Chapmansboro, Tennessee
Current Conditions -  °F | °C
As of 1:52 AM on Wednesday 22 Oct 2014 (Local Time) from KCKV Reporting Station
Clear Clear  
Wind Chill: 44°   Ceiling: Unl
Heat Index: 46°   Visibility: 10mi
Dew Point: 41°   Wind: 5mph
Humidity: 83%   Direction: 360°N
Pressure: 30.16"   Gusts: NA
Location:  36.37°N, 87.14°W
Report Text: KCKV 220652Z AUTO 36004KT 10SM CLR 08/05 A3016 RMK AO2 SLP210 T00780050
Loading
Personal Weather Stations






























Interactive Weather Map
Tropical Storm Tracking
New forecast layout! Learn more

10-Day Weather Forecast

Advertisements
Track Severe Weather on mobile